Time;durP1;ratioP1;P1;durP2;ratioP2;P2;SDS_P1;SDS_P2;PMS_P1;PMS_P2;Temp;Humidity;BMP_temperature;BMP_pressure;BME280_temperature;BME280_humidity;BME280_pressure;Samples;Min_cycle;Max_cycle;Signal;HPM_P1;HPM_P2
2023/05/12 00:01:18;;;;;;;1.70;1.60;;;;;;;23.54;45.18;101493.44;5039970;27;96806;-76
2023/05/12 00:03:45;;;;;;;1.73;1.55;;;;;;;23.54;45.39;101493.44;5041687;27;97415;-76
2023/05/12 00:06:12;;;;;;;2.03;1.80;;;;;;;23.54;45.30;101501.66;5021699;27;97875;-76
2023/05/12 00:08:38;;;;;;;2.00;1.80;;;;;;;23.54;45.09;101498.06;5045938;27;97194;-76
2023/05/12 00:11:05;;;;;;;1.67;1.58;;;;;;;23.54;45.44;101492.56;5042542;27;98802;-76
2023/05/12 00:13:32;;;;;;;2.20;1.67;;;;;;;23.53;45.16;101490.88;5024930;27;96820;-76
2023/05/12 00:15:58;;;;;;;1.98;1.48;;;;;;;23.53;45.42;101493.59;5038602;27;97047;-76
2023/05/12 00:18:27;;;;;;;2.13;1.50;;;;;;;23.53;45.21;101493.59;5044749;27;97866;-76
2023/05/12 00:20:54;;;;;;;1.60;1.50;;;;;;;23.53;45.14;101491.72;5042141;27;96868;-76
2023/05/12 00:23:21;;;;;;;1.60;1.48;;;;;;;23.54;45.25;101492.56;5040356;27;96879;-76
2023/05/12 00:25:48;;;;;;;1.90;1.70;;;;;;;23.53;45.32;101485.38;5034616;27;97098;-76
2023/05/12 00:28:17;;;;;;;1.45;1.35;;;;;;;23.53;45.33;101482.63;5042723;27;97505;-76
2023/05/12 00:30:44;;;;;;;2.17;1.45;;;;;;;23.53;45.22;101488.13;5043317;27;96777;-76
2023/05/12 00:33:11;;;;;;;1.88;1.65;;;;;;;23.52;45.38;101490.00;5040289;27;96973;-76
2023/05/12 00:35:37;;;;;;;1.48;1.38;;;;;;;23.52;45.08;101484.53;5044115;27;98460;-76
2023/05/12 00:38:04;;;;;;;2.08;1.63;;;;;;;23.52;45.30;101475.44;5041584;27;97060;-76
2023/05/12 00:40:31;;;;;;;1.50;1.40;;;;;;;23.52;45.27;101480.94;5045938;27;96790;-76
2023/05/12 00:42:57;;;;;;;1.70;1.40;;;;;;;23.52;44.98;101484.53;5043784;27;96859;-76
2023/05/12 00:45:24;;;;;;;1.40;1.30;;;;;;;23.52;45.14;101480.94;5045740;27;97622;-76
2023/05/12 00:47:52;;;;;;;1.67;1.40;;;;;;;23.51;45.26;101481.97;5053450;27;96810;-76
2023/05/12 00:50:19;;;;;;;1.95;1.38;;;;;;;23.52;45.39;101475.44;5041848;27;97142;-76
2023/05/12 00:52:48;;;;;;;1.70;1.42;;;;;;;23.51;45.10;101476.47;5040001;27;97006;-76
2023/05/12 00:55:15;;;;;;;1.65;1.50;;;;;;;23.52;45.23;101472.72;5045844;27;98011;-76
2023/05/12 00:57:42;;;;;;;1.23;1.10;;;;;;;23.51;45.42;101471.00;5047428;27;97608;-76
2023/05/12 01:00:11;;;;;;;1.25;1.15;;;;;;;23.51;45.30;101468.25;5044508;27;97312;-76
2023/05/12 01:02:39;;;;;;;2.60;1.40;;;;;;;23.51;45.06;101462.78;5044362;27;96951;-76
2023/05/12 01:05:06;;;;;;;1.48;1.35;;;;;;;23.52;44.95;101461.75;5043556;27;99275;-76
2023/05/12 01:07:33;;;;;;;1.88;1.33;;;;;;;23.51;45.20;101465.50;5022777;27;97807;-76
2023/05/12 01:10:00;;;;;;;1.65;1.40;;;;;;;23.50;45.33;101467.41;5047427;27;98206;-76
2023/05/12 01:12:32;;;;;;;1.20;1.10;;;;;;;23.50;45.16;101464.66;5042416;27;97391;-76
2023/05/12 01:15:00;;;;;;;1.40;1.23;;;;;;;23.50;45.18;101461.91;5051660;27;98155;-76
2023/05/12 01:17:32;;;;;;;1.75;1.30;;;;;;;23.50;45.29;101458.31;5042577;27;97471;-76
2023/05/12 01:20:01;;;;;;;1.40;1.20;;;;;;;23.49;45.05;101460.22;5047737;27;96861;-76
2023/05/12 01:22:32;;;;;;;1.60;1.27;;;;;;;23.50;45.30;101461.06;5049244;27;97087;-76
2023/05/12 01:25:03;;;;;;;1.38;1.27;;;;;;;23.50;44.96;101464.66;5042861;27;99290;-76
2023/05/12 01:27:32;;;;;;;1.52;1.33;;;;;;;23.50;45.16;101450.09;5064900;27;98475;-76
2023/05/12 01:30:02;;;;;;;1.30;1.20;;;;;;;23.50;45.10;101456.44;5043212;27;96847;-76
2023/05/12 01:32:34;;;;;;;2.05;1.48;;;;;;;23.49;44.89;101451.13;5047992;27;96616;-77
2023/05/12 01:35:01;;;;;;;1.35;1.20;;;;;;;23.49;45.30;101449.25;5031381;27;99111;-76
2023/05/12 01:37:30;;;;;;;2.85;1.52;;;;;;;23.48;44.88;101441.19;5042561;27;97471;-76
2023/05/12 01:39:59;;;;;;;1.17;1.08;;;;;;;23.48;45.09;101442.06;5040893;27;96681;-76
2023/05/12 01:42:25;;;;;;;1.42;1.20;;;;;;;23.48;45.35;101438.47;5051049;27;97118;-76
2023/05/12 01:44:52;;;;;;;1.52;1.20;;;;;;;23.48;45.09;101441.19;5026849;27;97000;-76
2023/05/12 01:47:20;;;;;;;1.58;1.33;;;;;;;23.48;44.99;101436.56;5049836;27;99330;-76
2023/05/12 01:50:04;;;;;;;1.50;1.30;;;;;;;23.46;44.77;101436.75;5033265;27;97579;-76
2023/05/12 01:52:31;;;;;;;1.27;1.17;;;;;;;23.48;45.27;101446.69;5047819;27;96892;-76
2023/05/12 01:54:58;;;;;;;1.20;1.10;;;;;;;23.46;45.04;101442.22;5050009;27;100217;-76
2023/05/12 01:57:28;;;;;;;1.52;1.20;;;;;;;23.46;45.02;101438.63;5046340;27;96891;-76
2023/05/12 01:59:57;;;;;;;1.27;1.10;;;;;;;23.46;45.12;101434.00;5047067;27;97163;-76
2023/05/12 02:02:24;;;;;;;1.20;1.10;;;;;;;23.45;45.18;101432.28;5034026;27;97022;-76
2023/05/12 02:04:50;;;;;;;1.88;1.33;;;;;;;23.46;44.94;101430.41;5045182;27;98775;-76
2023/05/12 02:07:17;;;;;;;1.40;1.30;;;;;;;23.47;44.88;101429.38;5048196;27;96919;-76
2023/05/12 02:09:45;;;;;;;1.20;1.00;;;;;;;23.46;45.01;101431.25;5035981;27;96993;-76
2023/05/12 02:12:12;;;;;;;1.38;1.17;;;;;;;23.46;45.18;101424.94;5037613;27;97000;-76
2023/05/12 02:14:38;;;;;;;1.30;1.20;;;;;;;23.45;45.31;101435.03;5043764;27;97711;-76
2023/05/12 02:17:05;;;;;;;1.15;1.00;;;;;;;23.46;45.01;101428.53;5050673;27;97917;-76
2023/05/12 02:19:31;;;;;;;1.55;1.27;;;;;;;23.46;45.13;101425.78;5052535;27;97066;-75
2023/05/12 02:21:58;;;;;;;1.23;1.10;;;;;;;23.46;45.20;101423.03;5051399;27;96912;-76
2023/05/12 02:24:25;;;;;;;1.10;1.00;;;;;;;23.47;45.10;101423.91;5041956;27;99590;-76
2023/05/12 02:26:51;;;;;;;1.10;1.00;;;;;;;23.48;45.03;101411.03;5039297;27;97276;-76
2023/05/12 02:29:18;;;;;;;1.10;1.00;;;;;;;23.48;44.98;101419.25;5046702;27;96783;-75
2023/05/12 02:31:44;;;;;;;1.23;1.00;;;;;;;23.46;45.07;101412.06;5046220;27;96655;-75
2023/05/12 02:34:14;;;;;;;1.10;1.00;;;;;;;23.47;45.08;101410.19;5051739;27;99839;-75
2023/05/12 02:36:41;;;;;;;0.95;0.82;;;;;;;23.48;44.98;101405.56;5042157;27;96747;-76
2023/05/12 02:39:09;;;;;;;1.02;0.93;;;;;;;23.49;44.97;101404.53;5045253;27;96963;-75
2023/05/12 02:41:35;;;;;;;1.20;1.10;;;;;;;23.48;45.11;101400.94;5049579;27;96711;-76
2023/05/12 02:44:02;;;;;;;1.00;0.90;;;;;;;23.48;44.81;101400.06;5034152;27;99619;-76
2023/05/12 02:46:29;;;;;;;1.17;0.98;;;;;;;23.48;45.13;101397.34;5051462;27;99925;-75
2023/05/12 02:48:56;;;;;;;1.10;1.00;;;;;;;23.49;44.96;101396.31;5035034;27;96814;-75
2023/05/12 02:51:22;;;;;;;1.00;0.90;;;;;;;23.48;44.89;101397.34;5045985;27;96856;-76
2023/05/12 02:53:49;;;;;;;1.02;0.93;;;;;;;23.48;44.98;101397.34;5037112;27;99710;-76
2023/05/12 02:56:16;;;;;;;0.93;0.90;;;;;;;23.49;45.19;101396.31;5041741;27;99112;-75
2023/05/12 02:58:43;;;;;;;1.17;1.08;;;;;;;23.49;45.24;101393.56;5029821;27;97593;-75
2023/05/12 03:01:10;;;;;;;1.20;1.00;;;;;;;23.49;44.97;101396.31;5045871;27;96947;-75
2023/05/12 03:03:39;;;;;;;1.08;0.77;;;;;;;23.48;44.98;101398.19;5046258;27;96872;-75
2023/05/12 03:06:06;;;;;;;0.68;0.65;;;;;;;23.48;44.98;101402.81;5049170;27;96699;-76
2023/05/12 03:08:33;;;;;;;0.98;0.90;;;;;;;23.48;44.81;101392.69;5041020;27;96674;-76
2023/05/12 03:11:00;;;;;;;1.35;0.85;;;;;;;23.49;44.93;101393.56;5051739;27;97184;-75
2023/05/12 03:13:27;;;;;;;0.95;0.80;;;;;;;23.46;45.04;101387.41;5052368;27;98768;-75
2023/05/12 03:15:54;;;;;;;1.10;1.00;;;;;;;23.49;44.89;101385.34;5043598;27;96769;-76
2023/05/12 03:18:21;;;;;;;0.88;0.80;;;;;;;23.49;45.06;101388.94;5047619;27;96778;-76
2023/05/12 03:20:48;;;;;;;1.13;0.90;;;;;;;23.49;45.00;101385.34;5048586;27;97454;-76
2023/05/12 03:23:15;;;;;;;1.05;0.85;;;;;;;23.49;44.99;101385.34;5046470;27;98474;-75
2023/05/12 03:25:42;;;;;;;1.10;1.00;;;;;;;23.49;45.04;101385.34;5027904;27;99159;-75
2023/05/12 03:28:09;;;;;;;1.17;0.80;;;;;;;23.50;44.85;101381.56;5038425;27;97044;-76
2023/05/12 03:30:36;;;;;;;0.98;0.90;;;;;;;23.49;44.92;101383.44;5046127;27;96918;-75
2023/05/12 03:33:02;;;;;;;1.27;1.17;;;;;;;23.49;44.82;101374.38;5038859;27;96956;-76
2023/05/12 03:35:29;;;;;;;1.08;0.98;;;;;;;23.49;44.97;101377.97;5049786;27;99124;-76
2023/05/12 03:37:59;;;;;;;1.13;0.98;;;;;;;23.49;44.97;101374.38;5016685;27;96667;-75
2023/05/12 03:40:26;;;;;;;1.08;0.90;;;;;;;23.48;44.96;101379.00;5042683;27;96905;-75
2023/05/12 03:42:52;;;;;;;1.10;0.80;;;;;;;23.49;44.90;101372.47;5037850;27;98614;-75
2023/05/12 03:45:19;;;;;;;1.00;0.80;;;;;;;23.49;44.84;101372.47;5044254;27;96947;-76
2023/05/12 03:47:45;;;;;;;1.00;0.85;;;;;;;23.50;44.81;101365.09;5054483;27;96940;-76
2023/05/12 03:50:12;;;;;;;0.73;0.70;;;;;;;23.49;44.72;101366.16;5045216;27;97243;-76
2023/05/12 03:52:40;;;;;;;0.85;0.80;;;;;;;23.49;44.78;101369.75;5048520;27;99174;-76
2023/05/12 03:55:07;;;;;;;0.95;0.80;;;;;;;23.49;44.83;101363.41;5042058;27;97406;-75
2023/05/12 03:57:35;;;;;;;0.95;0.82;;;;;;;23.48;44.68;101373.50;5049908;27;97191;-75
2023/05/12 04:00:05;;;;;;;1.23;1.00;;;;;;;23.49;44.66;101366.16;5026513;27;96918;-75
2023/05/12 04:02:38;;;;;;;1.27;0.90;;;;;;;23.47;44.85;101369.06;5044570;27;97203;-75
2023/05/12 04:05:07;;;;;;;0.82;0.73;;;;;;;23.48;45.01;101372.66;5039150;27;99702;-75
2023/05/12 04:07:34;;;;;;;0.93;0.82;;;;;;;23.46;44.95;101370.94;5045694;27;97279;-75
2023/05/12 04:10:01;;;;;;;0.70;0.68;;;;;;;23.45;44.57;101369.25;5044248;27;97007;-76
2023/05/12 04:12:28;;;;;;;1.02;0.80;;;;;;;23.46;44.73;101376.44;5033488;27;99058;-75
2023/05/12 04:14:55;;;;;;;1.00;0.73;;;;;;;23.46;44.73;101370.09;5041116;27;97537;-76
2023/05/12 04:17:23;;;;;;;1.10;0.93;;;;;;;23.45;44.73;101362.91;5045899;27;96662;-75
2023/05/12 04:19:52;;;;;;;0.90;0.77;;;;;;;23.45;44.51;101366.50;5053651;27;96859;-75
2023/05/12 04:22:18;;;;;;;1.15;0.90;;;;;;;23.45;44.55;101379.34;5022278;27;99613;-76
2023/05/12 04:24:45;;;;;;;0.93;0.88;;;;;;;23.45;44.50;101373.88;5051173;27;98527;-75
2023/05/12 04:27:12;;;;;;;1.13;1.02;;;;;;;23.45;44.83;101374.72;5058759;27;96838;-76
2023/05/12 04:29:38;;;;;;;1.00;0.75;;;;;;;23.44;44.84;101380.38;5049030;27;98009;-75
2023/05/12 04:32:05;;;;;;;0.85;0.80;;;;;;;23.45;44.45;101376.63;5048957;27;97246;-76
2023/05/12 04:34:33;;;;;;;1.00;0.80;;;;;;;23.44;44.75;101374.91;5044252;27;100034;-76
2023/05/12 04:37:00;;;;;;;1.15;0.82;;;;;;;23.44;44.59;101375.75;5054281;27;97220;-75
2023/05/12 04:39:27;;;;;;;1.00;0.90;;;;;;;23.44;44.88;101372.16;5054209;27;96859;-76
2023/05/12 04:41:53;;;;;;;0.95;0.80;;;;;;;23.43;44.84;101376.78;5049362;27;99542;-76
2023/05/12 04:44:21;;;;;;;1.08;0.98;;;;;;;23.44;44.99;101377.66;5053164;27;98680;-76
2023/05/12 04:46:52;;;;;;;1.25;1.13;;;;;;;23.43;44.63;101379.53;5065593;27;96886;-75
2023/05/12 04:49:19;;;;;;;0.85;0.73;;;;;;;23.43;45.11;101387.75;5047976;27;97326;-76
2023/05/12 04:51:46;;;;;;;1.00;0.90;;;;;;;23.44;44.63;101380.38;5033056;27;100357;-76
2023/05/12 04:54:13;;;;;;;1.10;1.00;;;;;;;23.43;44.58;101385.03;5044606;27;99458;-76
2023/05/12 04:56:41;;;;;;;0.80;0.70;;;;;;;23.44;44.56;101389.47;5051712;27;96722;-76
2023/05/12 04:59:07;;;;;;;0.90;0.80;;;;;;;23.43;44.82;101389.66;5043420;27;96977;-75
2023/05/12 05:01:34;;;;;;;1.10;0.95;;;;;;;23.43;44.65;101395.97;5043359;27;100036;-75
2023/05/12 05:04:01;;;;;;;1.10;1.00;;;;;;;23.43;44.74;101401.47;5047227;27;99847;-75
2023/05/12 05:06:27;;;;;;;1.00;0.90;;;;;;;23.43;44.87;101406.94;5049737;27;96733;-75
2023/05/12 05:08:54;;;;;;;1.00;0.90;;;;;;;23.44;44.74;101411.41;5044979;27;97112;-75
2023/05/12 05:11:21;;;;;;;0.70;0.70;;;;;;;23.43;44.77;101415.19;5018711;27;96923;-76
2023/05/12 05:13:48;;;;;;;1.00;0.90;;;;;;;23.44;44.75;101425.09;5045418;27;99237;-75
2023/05/12 05:16:16;;;;;;;1.17;1.00;;;;;;;23.44;44.71;101432.47;5037437;27;96850;-75
2023/05/12 05:18:45;;;;;;;1.23;1.08;;;;;;;23.43;44.69;101426.13;5058069;27;97573;-76
2023/05/12 05:21:15;;;;;;;0.93;0.90;;;;;;;23.44;44.69;101429.75;5038323;27;99019;-76
2023/05/12 05:23:42;;;;;;;1.00;0.80;;;;;;;23.43;44.87;101431.63;5045291;27;99082;-75
2023/05/12 05:26:09;;;;;;;1.15;0.90;;;;;;;23.44;44.54;101430.59;5046007;27;97194;-76
2023/05/12 05:28:38;;;;;;;1.13;1.02;;;;;;;23.44;44.71;101443.44;5049857;27;96985;-76
2023/05/12 05:31:06;;;;;;;1.58;0.98;;;;;;;23.44;44.68;101447.03;5052122;27;100679;-75
2023/05/12 05:33:33;;;;;;;1.00;0.90;;;;;;;23.44;44.66;101441.56;5046156;27;97578;-75
2023/05/12 05:36:00;;;;;;;1.02;0.88;;;;;;;23.45;44.65;101445.16;5045466;27;96845;-75
2023/05/12 05:38:28;;;;;;;1.33;1.05;;;;;;;23.46;44.57;101452.34;5046523;27;96995;-76
2023/05/12 05:40:54;;;;;;;1.10;1.00;;;;;;;23.45;44.46;101454.22;5054049;27;100405;-75
2023/05/12 05:43:23;;;;;;;1.00;0.90;;;;;;;23.45;44.68;101456.97;5041224;27;100328;-75
2023/05/12 05:45:50;;;;;;;1.10;1.00;;;;;;;23.46;44.74;101466.06;5042770;27;97102;-75
2023/05/12 05:48:19;;;;;;;1.20;1.10;;;;;;;23.46;44.40;101466.91;5048271;27;97269;-76
2023/05/12 05:50:46;;;;;;;1.48;1.30;;;;;;;23.46;44.64;101466.06;5045203;27;97695;-75
2023/05/12 05:53:13;;;;;;;0.90;0.80;;;;;;;23.45;44.80;101467.94;5046400;27;98643;-76
2023/05/12 05:55:40;;;;;;;1.60;1.10;;;;;;;23.46;44.92;101464.16;5048070;27;96766;-75
2023/05/12 05:58:07;;;;;;;1.20;1.08;;;;;;;23.47;44.81;101467.75;5049879;27;96941;-76
2023/05/12 06:00:34;;;;;;;1.15;0.98;;;;;;;23.46;44.52;101477.88;5045210;27;96877;-75
2023/05/12 06:03:00;;;;;;;1.10;0.98;;;;;;;23.47;44.69;101478.72;5021777;27;98885;-75
2023/05/12 06:05:27;;;;;;;1.40;1.10;;;;;;;23.47;44.32;101486.94;5035441;27;96952;-75
2023/05/12 06:07:54;;;;;;;1.23;0.98;;;;;;;23.48;44.62;101482.31;5030372;27;96760;-75
2023/05/12 06:10:21;;;;;;;1.33;1.10;;;;;;;23.48;44.80;101498.78;5039101;27;97554;-75
2023/05/12 06:12:49;;;;;;;1.42;1.05;;;;;;;23.47;44.79;101489.69;5049195;27;97397;-75
2023/05/12 06:15:16;;;;;;;1.27;1.17;;;;;;;23.49;44.80;101505.97;5041202;27;97362;-75
2023/05/12 06:17:43;;;;;;;1.48;1.27;;;;;;;23.48;44.86;101510.59;5042506;27;96858;-75
2023/05/12 06:20:12;;;;;;;1.45;1.25;;;;;;;23.49;44.60;101517.78;5043531;27;96970;-75
2023/05/12 06:22:41;;;;;;;1.50;1.40;;;;;;;23.50;44.66;101513.16;5043236;27;98349;-75
2023/05/12 06:25:08;;;;;;;1.48;1.30;;;;;;;23.49;44.78;101517.78;5032072;27;96954;-75
2023/05/12 06:27:36;;;;;;;1.40;1.30;;;;;;;23.49;44.76;101520.53;5043034;27;96936;-75
2023/05/12 06:30:05;;;;;;;1.65;1.50;;;;;;;23.49;44.35;101520.53;5047337;27;99233;-75
2023/05/12 06:32:32;;;;;;;2.00;1.45;;;;;;;23.49;44.54;101520.53;5033732;27;99477;-75
2023/05/12 06:34:58;;;;;;;1.48;1.30;;;;;;;23.50;44.90;101526.88;5019088;27;96818;-75
2023/05/12 06:37:26;;;;;;;1.60;1.42;;;;;;;23.49;44.66;101528.75;5049476;27;96836;-75
2023/05/12 06:39:53;;;;;;;1.50;1.20;;;;;;;23.49;44.42;101533.38;5043191;27;97134;-75
2023/05/12 06:42:19;;;;;;;1.65;1.55;;;;;;;23.49;44.33;101536.97;5042409;27;97100;-75
2023/05/12 06:44:50;;;;;;;1.40;1.30;;;;;;;23.50;44.50;101538.69;5044813;27;97748;-75
2023/05/12 06:47:19;;;;;;;2.08;1.85;;;;;;;23.50;44.51;101543.31;5019573;27;96719;-75
2023/05/12 06:49:48;;;;;;;1.80;1.70;;;;;;;23.51;44.85;101550.50;5031495;27;97117;-75
2023/05/12 06:52:15;;;;;;;1.70;1.60;;;;;;;23.50;44.71;101546.91;5032028;27;97509;-75
2023/05/12 06:54:42;;;;;;;1.48;1.33;;;;;;;23.51;44.73;101553.25;5028944;27;96744;-75
2023/05/12 06:57:09;;;;;;;1.20;1.10;;;;;;;23.51;44.60;101556.00;5030090;27;97239;-75
2023/05/12 06:59:36;;;;;;;1.80;1.42;;;;;;;23.51;44.46;101561.47;5031819;27;100110;-74
2023/05/12 07:02:02;;;;;;;2.30;1.50;;;;;;;23.50;44.47;101548.78;5050899;27;96846;-76
2023/05/12 07:04:29;;;;;;;1.77;1.67;;;;;;;23.50;44.68;101557.88;5048820;27;97242;-75
2023/05/12 07:06:55;;;;;;;1.40;1.20;;;;;;;23.51;44.87;101556.84;5031664;27;96876;-76
2023/05/12 07:09:22;;;;;;;1.65;1.55;;;;;;;23.51;44.75;101554.09;5045731;27;97568;-76
2023/05/12 07:11:48;;;;;;;1.40;1.30;;;;;;;23.52;44.72;101555.81;5042264;27;97369;-75
2023/05/12 07:14:15;;;;;;;1.23;1.13;;;;;;;23.52;44.95;101560.44;5045874;27;97417;-75
2023/05/12 07:16:42;;;;;;;1.75;1.65;;;;;;;23.52;44.67;101558.56;5036906;27;97065;-75
2023/05/12 07:19:08;;;;;;;1.40;1.30;;;;;;;23.52;44.35;101560.44;5041342;27;97929;-75
2023/05/12 07:21:36;;;;;;;1.65;1.50;;;;;;;23.52;44.46;101561.28;5035438;27;97428;-76
2023/05/12 07:24:04;;;;;;;1.60;1.50;;;;;;;23.53;44.51;101573.97;5031961;27;97230;-76
2023/05/12 07:26:31;;;;;;;1.38;1.27;;;;;;;23.53;44.54;101570.38;5030117;27;97079;-76
2023/05/12 07:28:59;;;;;;;1.52;1.42;;;;;;;23.53;44.46;101559.41;5031970;27;97025;-76
2023/05/12 07:31:26;;;;;;;1.60;1.50;;;;;;;23.53;44.85;101567.63;5030035;27;98150;-76
2023/05/12 07:33:52;;;;;;;2.00;1.40;;;;;;;23.53;44.50;101562.16;5030933;27;96961;-76
2023/05/12 07:36:19;;;;;;;1.58;1.48;;;;;;;23.53;44.77;101557.53;5031494;27;97328;-76
2023/05/12 07:38:47;;;;;;;1.42;1.33;;;;;;;23.54;44.54;101561.97;5030684;27;96832;-76
2023/05/12 07:41:14;;;;;;;1.42;1.33;;;;;;;23.54;44.60;101572.09;5033051;27;96727;-76
2023/05/12 07:43:41;;;;;;;1.55;1.30;;;;;;;23.54;44.82;101569.34;5048955;27;96879;-76
2023/05/12 07:46:07;;;;;;;2.20;1.55;;;;;;;23.54;44.46;101567.47;5037852;27;96687;-76
2023/05/12 07:48:38;;;;;;;1.42;1.20;;;;;;;23.54;44.54;101567.47;5032529;27;97525;-76
2023/05/12 07:51:06;;;;;;;1.60;1.50;;;;;;;23.54;44.61;101572.94;5034312;27;96767;-76
2023/05/12 07:53:33;;;;;;;1.92;1.48;;;;;;;23.54;44.85;101580.31;5031452;27;97204;-76
2023/05/12 07:55:59;;;;;;;1.40;1.30;;;;;;;23.54;44.78;101581.16;5047116;27;96732;-76
2023/05/12 07:58:26;;;;;;;2.05;1.25;;;;;;;23.54;44.45;101580.31;5030078;27;98896;-76
2023/05/12 08:00:53;;;;;;;1.48;1.38;;;;;;;23.54;44.54;101574.84;5039623;27;98139;-76
2023/05/12 08:03:20;;;;;;;1.75;1.42;;;;;;;23.55;44.87;101582.06;5027945;27;97439;-76
2023/05/12 08:05:46;;;;;;;2.17;1.25;;;;;;;23.54;44.71;101580.31;5040498;27;96851;-76
2023/05/12 08:08:15;;;;;;;1.92;1.40;;;;;;;23.55;44.33;101582.91;5042078;27;97122;-76
2023/05/12 08:10:43;;;;;;;1.45;1.33;;;;;;;23.55;44.63;101593.03;5026962;27;99681;-76
2023/05/12 08:13:09;;;;;;;1.55;1.45;;;;;;;23.55;44.54;101596.63;5042089;27;98045;-76
2023/05/12 08:15:36;;;;;;;1.58;1.48;;;;;;;23.56;44.57;101601.06;5036553;27;97053;-76
2023/05/12 08:18:02;;;;;;;1.85;1.48;;;;;;;23.56;44.41;101594.72;5042384;27;97648;-76
2023/05/12 08:20:30;;;;;;;1.45;1.23;;;;;;;23.57;44.34;101604.66;5039159;27;97393;-76
2023/05/12 08:22:56;;;;;;;1.40;1.30;;;;;;;23.57;44.44;101604.66;5043545;27;97452;-76
2023/05/12 08:25:23;;;;;;;2.20;1.30;;;;;;;23.57;44.51;101605.53;5029524;27;97279;-76
2023/05/12 08:27:50;;;;;;;3.00;1.40;;;;;;;23.58;44.50;101609.97;5029954;27;96977;-76
2023/05/12 08:30:16;;;;;;;2.35;1.40;;;;;;;23.58;44.53;101620.09;5029664;27;96849;-76
2023/05/12 08:32:43;;;;;;;1.88;1.23;;;;;;;23.58;44.33;101609.13;5032186;27;97109;-76
2023/05/12 08:35:10;;;;;;;1.52;1.38;;;;;;;23.58;44.42;101606.38;5032972;27;97353;-76
2023/05/12 08:37:37;;;;;;;1.45;1.30;;;;;;;23.59;44.45;101617.19;5044433;27;96887;-76
2023/05/12 08:40:12;;;;;;;2.08;1.35;;;;;;;23.60;44.43;101612.53;5031357;27;96878;-76
2023/05/12 08:42:44;;;;;;;1.30;1.20;;;;;;;23.60;44.58;101616.16;5033984;27;97246;-76
2023/05/12 08:45:10;;;;;;;1.50;1.40;;;;;;;23.60;44.42;101618.03;5044446;27;97084;-76
2023/05/12 08:47:39;;;;;;;1.55;1.30;;;;;;;23.60;44.52;101612.53;5046340;27;96931;-77
2023/05/12 08:50:08;;;;;;;1.45;1.17;;;;;;;23.61;44.38;101614.25;5044931;27;97224;-76
2023/05/12 08:52:35;;;;;;;1.52;1.33;;;;;;;23.62;44.36;101618.72;5042019;27;96817;-76
2023/05/12 08:55:03;;;;;;;1.45;1.33;;;;;;;23.61;44.44;101626.09;5031108;27;97008;-77
2023/05/12 08:57:30;;;;;;;1.48;1.38;;;;;;;23.61;44.51;101623.34;5014115;28;100453;-77
2023/05/12 09:00:00;;;;;;;1.42;1.13;;;;;;;23.62;44.40;101637.91;5031295;27;96957;-77
2023/05/12 09:02:29;;;;;;;1.40;1.30;;;;;;;23.62;44.38;101632.44;5033322;27;97632;-76
2023/05/12 09:05:10;;;;;;;1.45;1.35;;;;;;;23.62;44.38;101619.56;5033981;27;97183;-77
2023/05/12 09:07:43;;;;;;;1.38;1.25;;;;;;;23.62;44.30;101632.44;5043644;27;96818;-76
2023/05/12 09:10:17;;;;;;;1.30;1.20;;;;;;;23.63;44.53;101642.38;5036107;27;97457;-77
2023/05/12 09:13:13;;;;;;;1.52;1.30;;;;;;;23.62;44.46;101635.16;5050880;27;96801;-77
2023/05/12 09:15:44;;;;;;;1.33;1.20;;;;;;;23.61;44.33;101631.56;5031136;27;98710;-76
2023/05/12 09:18:11;;;;;;;1.70;1.30;;;;;;;23.61;44.48;101634.31;5035174;27;98115;-76
2023/05/12 09:20:38;;;;;;;2.00;1.20;;;;;;;23.63;44.42;101639.63;5048103;27;96784;-76
2023/05/12 09:23:13;;;;;;;1.10;1.00;;;;;;;23.64;44.25;101644.06;5041103;27;96752;-77
2023/05/12 09:25:39;;;;;;;;;;;;;;;23.59;44.44;101639.13;5042852;27;96689;-76
2023/05/12 09:28:06;;;;;;;1.20;1.10;;;;;;;23.59;44.43;101641.00;5050986;27;98427;-76
2023/05/12 09:30:36;;;;;;;1.30;1.20;;;;;;;23.60;44.46;101643.56;5041150;27;97907;-76
2023/05/12 09:33:11;;;;;;;1.40;1.30;;;;;;;23.62;44.57;101643.38;5042578;27;96763;-76
2023/05/12 09:35:38;;;;;;;2.33;1.35;;;;;;;23.61;44.53;101652.66;5035063;27;96992;-76
2023/05/12 09:38:07;;;;;;;1.58;1.38;;;;;;;23.62;44.65;101648.88;5053434;27;97712;-77
2023/05/12 09:40:34;;;;;;;2.05;1.58;;;;;;;23.62;44.43;101654.34;5038364;27;97139;-77
2023/05/12 09:43:02;;;;;;;1.02;0.93;;;;;;;23.63;44.54;101650.59;5040134;27;96722;-76
2023/05/12 09:45:33;;;;;;;1.50;1.30;;;;;;;23.63;44.48;101659.66;5033985;27;96731;-76
2023/05/12 09:48:08;;;;;;;1.70;1.25;;;;;;;23.64;44.40;101657.78;5030838;27;96817;-76
2023/05/12 09:50:44;;;;;;;1.80;1.30;;;;;;;23.64;44.53;101661.38;5038698;27;96717;-77
2023/05/12 09:53:14;;;;;;;1.45;1.15;;;;;;;23.64;44.28;101650.41;5042271;27;97020;-76
2023/05/12 09:55:47;;;;;;;1.30;1.20;;;;;;;23.65;44.42;101659.50;5039639;27;96610;-77
2023/05/12 09:58:16;;;;;;;1.25;1.15;;;;;;;23.65;44.34;101660.34;5043710;27;96885;-76
2023/05/12 10:00:43;;;;;;;1.30;1.20;;;;;;;23.65;44.28;101648.53;5046973;27;96733;-77
2023/05/12 10:03:32;;;;;;;1.33;1.10;;;;;;;23.64;44.18;101658.63;5040178;27;97853;-76
2023/05/12 10:06:02;;;;;;;1.40;1.10;;;;;;;23.65;44.22;101660.34;5037788;27;96640;-76
2023/05/12 10:08:41;;;;;;;1.60;1.30;;;;;;;23.65;44.61;101654.88;5032317;27;97017;-76
2023/05/12 10:11:09;;;;;;;1.40;1.20;;;;;;;23.65;44.33;101667.72;5031426;27;96821;-76
2023/05/12 10:13:37;;;;;;;1.40;1.30;;;;;;;23.67;44.42;101660.19;5031956;27;96811;-76
2023/05/12 10:16:05;;;;;;;1.02;0.90;;;;;;;23.65;44.16;101668.56;5032602;27;96881;-76
2023/05/12 10:18:33;;;;;;;1.25;1.10;;;;;;;23.65;44.25;101667.72;5031973;27;97299;-76
2023/05/12 10:21:01;;;;;;;1.50;1.10;;;;;;;23.66;44.09;101667.53;5036309;27;96795;-76
2023/05/12 10:23:28;;;;;;;1.17;0.90;;;;;;;23.66;44.28;101672.19;5042764;27;97201;-76
2023/05/12 10:26:00;;;;;;;1.55;1.20;;;;;;;23.66;44.28;101673.03;5030775;27;97199;-76
2023/05/12 10:28:28;;;;;;;2.00;1.27;;;;;;;23.66;44.36;101675.78;5030129;27;99889;-76
2023/05/12 10:30:57;;;;;;;1.20;1.10;;;;;;;23.67;44.13;101680.22;5043375;27;98941;-76
2023/05/12 10:33:25;;;;;;;1.75;1.10;;;;;;;23.67;44.10;101676.63;5038316;27;97025;-77
2023/05/12 10:35:52;;;;;;;1.42;1.20;;;;;;;23.66;44.29;101684.00;5037644;27;98984;-76
2023/05/12 10:38:18;;;;;;;2.17;1.10;;;;;;;23.67;44.16;101679.38;5029331;27;99513;-77
2023/05/12 10:40:53;;;;;;;1.30;1.15;;;;;;;23.67;44.04;101680.22;5045912;27;97017;-76
2023/05/12 10:43:28;;;;;;;1.25;1.00;;;;;;;23.67;44.30;101687.59;5044659;27;96889;-76
2023/05/12 10:46:15;;;;;;;1.30;0.95;;;;;;;23.66;44.28;101684.00;5048471;27;96824;-76
2023/05/12 10:48:57;;;;;;;1.48;1.17;;;;;;;23.66;44.26;101678.53;5049835;27;98948;-76
2023/05/12 10:51:27;;;;;;;1.27;1.13;;;;;;;23.66;44.17;101688.63;5044826;27;100519;-76
2023/05/12 10:54:04;;;;;;;2.10;1.05;;;;;;;23.66;44.17;101689.50;5034923;27;96926;-76
2023/05/12 10:56:37;;;;;;;1.02;0.90;;;;;;;23.66;43.96;101677.66;5033052;27;96679;-76
2023/05/12 10:59:17;;;;;;;1.25;1.15;;;;;;;23.66;44.00;101681.25;5031594;27;99971;-76
2023/05/12 11:02:05;;;;;;;1.77;0.88;;;;;;;23.65;44.30;101682.28;5049524;27;98003;-76
2023/05/12 11:04:54;;;;;;;1.83;1.20;;;;;;;23.66;43.92;101683.16;5047975;27;97523;-77
2023/05/12 11:07:25;;;;;;;1.40;1.27;;;;;;;23.65;44.25;101689.66;5040242;27;96761;-76
2023/05/12 11:09:53;;;;;;;1.17;1.00;;;;;;;23.65;44.04;101693.25;5046613;27;97022;-76
2023/05/12 11:12:30;;;;;;;1.23;1.13;;;;;;;23.66;44.17;101685.88;5032547;27;99378;-76
2023/05/12 11:15:02;;;;;;;1.13;1.02;;;;;;;23.67;44.07;101695.81;5026518;28;96714;-78
2023/05/12 11:17:28;;;;;;;1.23;1.13;;;;;;;23.67;44.27;101684.84;5034594;27;97313;-76
2023/05/12 11:19:55;;;;;;;1.45;1.00;;;;;;;23.67;43.96;101685.72;5041021;27;98146;-76
2023/05/12 11:22:23;;;;;;;1.58;1.10;;;;;;;23.67;43.95;101687.59;5050766;27;96835;-75
2023/05/12 11:24:51;;;;;;;1.80;1.25;;;;;;;23.68;43.88;101681.94;5047868;27;96711;-77
2023/05/12 11:27:21;;;;;;;1.20;1.10;;;;;;;23.69;43.92;101685.53;5029125;27;97446;-77
2023/05/12 11:30:00;;;;;;;1.30;1.00;;;;;;;23.69;44.13;101688.28;5032668;27;96951;-76